createdAt,value
2023-03-11T00:00:47.085Z,6.90
2023-03-11T00:03:28.127Z,7.57
2023-03-11T00:06:00.019Z,9.30
2023-03-11T00:08:50.016Z,7.88
2023-03-11T00:11:27.561Z,9.57
2023-03-11T00:14:01.931Z,8.38
2023-03-11T00:16:49.884Z,7.88
2023-03-11T00:19:34.161Z,8.70
2023-03-11T00:22:06.748Z,7.72
2023-03-11T00:25:00.621Z,7.55
2023-03-11T00:27:33.437Z,8.13
2023-03-11T00:30:13.427Z,9.15
2023-03-11T00:35:49.791Z,7.90
2023-03-11T00:38:23.159Z,7.78
2023-03-11T00:41:04.484Z,8.65
2023-03-11T00:43:36.501Z,8.32
2023-03-11T00:46:13.305Z,8.88
2023-03-11T00:48:52.912Z,8.80
2023-03-11T00:51:28.691Z,7.93
2023-03-11T00:54:12.473Z,7.90
2023-03-11T00:56:55.600Z,8.20
2023-03-11T00:59:30.495Z,6.80
2023-03-11T01:02:03.927Z,6.32
2023-03-11T01:04:40.836Z,5.57
2023-03-11T01:07:21.793Z,4.57
2023-03-11T01:10:00.310Z,5.57
2023-03-11T01:12:45.684Z,5.47
2023-03-11T01:15:27.182Z,5.47
2023-03-11T01:18:10.343Z,4.75
2023-03-11T01:20:44.157Z,5.15
2023-03-11T01:23:17.791Z,5.95
2023-03-11T01:26:01.075Z,5.22
2023-03-11T01:28:50.207Z,5.80
2023-03-11T01:31:28.521Z,5.53
2023-03-11T01:34:15.169Z,6.00
2023-03-11T01:36:58.292Z,5.70
2023-03-11T01:39:36.429Z,6.78
2023-03-11T01:42:14.345Z,7.13
2023-03-11T01:44:56.575Z,6.93
2023-03-11T01:47:49.905Z,8.55
2023-03-11T01:50:24.430Z,9.57
2023-03-11T01:53:03.029Z,9.23
2023-03-11T01:55:37.543Z,9.57
2023-03-11T01:58:24.076Z,10.10
2023-03-11T02:01:04.420Z,10.77
2023-03-11T02:03:52.684Z,9.75
2023-03-11T02:06:32.095Z,11.18
2023-03-11T02:09:18.885Z,11.02
2023-03-11T02:12:07.295Z,11.27
2023-03-11T02:14:59.069Z,12.20
2023-03-11T02:17:37.044Z,10.80
2023-03-11T02:20:24.035Z,12.55
2023-03-11T02:23:10.299Z,12.35
2023-03-11T02:25:52.630Z,11.70
2023-03-11T02:28:44.470Z,11.70
2023-03-11T02:31:29.769Z,10.93
2023-03-11T02:34:09.581Z,12.55
2023-03-11T02:39:43.069Z,12.10
2023-03-11T02:42:22.320Z,11.60
2023-03-11T02:45:17.146Z,11.90
2023-03-11T02:48:01.835Z,12.15
2023-03-11T02:53:34.735Z,14.55
2023-03-11T02:56:12.225Z,14.30
2023-03-11T02:58:49.922Z,12.48
2023-03-11T03:01:33.198Z,13.10
2023-03-11T03:04:07.878Z,10.43
2023-03-11T03:06:42.584Z,10.65
2023-03-11T03:09:21.204Z,11.20
2023-03-11T03:12:01.825Z,9.57
2023-03-11T03:14:42.059Z,10.50
2023-03-11T03:17:28.196Z,10.77
2023-03-11T03:20:06.063Z,10.73
2023-03-11T03:22:42.556Z,10.82
2023-03-11T03:25:22.367Z,11.38
2023-03-11T03:27:55.255Z,10.75
2023-03-11T03:30:41.955Z,10.40
2023-03-11T03:33:36.319Z,11.15
2023-03-11T03:36:22.421Z,12.02
2023-03-11T03:39:30.513Z,11.88
2023-03-11T03:42:04.236Z,11.48
2023-03-11T03:44:41.654Z,13.55
2023-03-11T03:47:19.032Z,16.70
2023-03-11T03:50:18.222Z,14.15
2023-03-11T03:52:57.409Z,11.77
2023-03-11T03:55:34.211Z,10.45
2023-03-11T03:58:08.956Z,11.98
2023-03-11T04:00:57.283Z,10.75
2023-03-11T04:03:52.847Z,11.30
2023-03-11T04:06:33.052Z,10.88
2023-03-11T04:09:20.171Z,11.63
2023-03-11T04:11:55.394Z,11.25
2023-03-11T04:14:30.276Z,10.55
2023-03-11T04:17:22.489Z,12.10
2023-03-11T04:20:04.013Z,12.18
2023-03-11T04:22:47.235Z,13.38
2023-03-11T04:25:23.732Z,11.25
2023-03-11T04:28:01.392Z,12.20
2023-03-11T04:30:47.450Z,12.23
2023-03-11T04:33:26.113Z,12.27
2023-03-11T04:36:05.642Z,12.07
2023-03-11T04:38:41.868Z,13.00
2023-03-11T04:41:22.579Z,12.65
2023-03-11T04:43:58.647Z,12.35
2023-03-11T04:46:33.257Z,12.30
2023-03-11T04:49:12.417Z,11.82
2023-03-11T04:51:47.865Z,11.88
2023-03-11T04:54:27.573Z,12.75
2023-03-11T04:57:08.130Z,12.40
2023-03-11T04:59:44.884Z,11.17
2023-03-11T05:02:18.053Z,12.38
2023-03-11T05:05:02.420Z,11.27
2023-03-11T05:07:35.328Z,12.35
2023-03-11T05:10:40.873Z,11.45
2023-03-11T05:13:21.333Z,12.93
2023-03-11T05:15:59.631Z,20.38
2023-03-11T05:18:34.708Z,17.38
2023-03-11T05:21:12.714Z,11.25
2023-03-11T05:23:50.748Z,11.82
2023-03-11T05:26:29.576Z,10.95
2023-03-11T05:29:08.280Z,11.05
2023-03-11T05:31:42.108Z,10.52
2023-03-11T05:34:18.149Z,11.05
2023-03-11T05:36:58.196Z,10.45
2023-03-11T05:39:59.860Z,10.73
2023-03-11T05:42:44.433Z,11.32
2023-03-11T05:45:40.128Z,11.88
2023-03-11T05:48:26.293Z,9.07
2023-03-11T05:50:58.282Z,6.78
2023-03-11T05:53:39.254Z,8.30
2023-03-11T05:56:28.691Z,8.95
2023-03-11T05:59:05.341Z,7.57
2023-03-11T06:01:46.214Z,8.52
2023-03-11T06:04:28.962Z,10.68
2023-03-11T06:07:05.863Z,10.57
2023-03-11T06:09:51.600Z,8.32
2023-03-11T06:12:22.644Z,8.60
2023-03-11T06:15:22.775Z,8.02
2023-03-11T06:17:56.644Z,7.95
2023-03-11T06:20:30.873Z,6.78
2023-03-11T06:23:10.812Z,6.35
2023-03-11T06:25:50.049Z,7.27
2023-03-11T06:28:23.602Z,6.65
2023-03-11T06:31:02.446Z,6.45
2023-03-11T06:33:45.159Z,6.13
2023-03-11T06:36:22.393Z,5.68
2023-03-11T06:39:00.975Z,6.35
2023-03-11T06:41:46.452Z,14.38
2023-03-11T06:44:20.693Z,11.82
2023-03-11T06:47:18.184Z,8.55
2023-03-11T06:49:57.709Z,8.15
2023-03-11T06:52:28.847Z,9.73
2023-03-11T06:55:06.963Z,8.95
2023-03-11T06:57:40.650Z,9.88
2023-03-11T07:00:23.445Z,8.98
2023-03-11T07:03:04.276Z,10.65
2023-03-11T07:05:38.696Z,5.20
2023-03-11T07:08:15.028Z,4.88
2023-03-11T07:10:50.632Z,3.60
2023-03-11T07:13:32.634Z,3.40
2023-03-11T07:16:17.171Z,2.83
2023-03-11T07:19:06.438Z,2.50
2023-03-11T07:21:46.420Z,2.25
2023-03-11T07:24:21.099Z,2.97
2023-03-11T07:27:08.767Z,3.55
2023-03-11T07:29:49.007Z,2.65
2023-03-11T07:32:27.202Z,2.22
2023-03-11T07:35:06.157Z,2.28
2023-03-11T07:37:40.968Z,3.20
2023-03-11T07:40:31.277Z,3.42
2023-03-11T07:46:10.052Z,2.70
2023-03-11T07:48:50.241Z,3.10
2023-03-11T07:51:43.751Z,2.83
2023-03-11T07:54:23.429Z,2.05
2023-03-11T07:57:03.208Z,2.13
2023-03-11T07:59:40.726Z,2.15
2023-03-11T08:02:16.472Z,2.15
2023-03-11T08:04:57.255Z,1.80
2023-03-11T08:07:47.322Z,1.60
2023-03-11T08:10:21.525Z,1.80
2023-03-11T08:12:59.739Z,1.80
2023-03-11T08:15:31.974Z,1.60
2023-03-11T08:18:25.392Z,1.95
2023-03-11T08:21:05.063Z,1.80
2023-03-11T08:24:03.388Z,2.03
2023-03-11T08:26:45.661Z,1.30
2023-03-11T08:29:26.870Z,8.88
2023-03-11T08:32:11.352Z,6.82
2023-03-11T08:34:49.071Z,3.45
2023-03-11T08:37:21.015Z,2.33
2023-03-11T08:39:58.223Z,2.75
2023-03-11T08:42:32.374Z,2.65
2023-03-11T08:45:09.920Z,2.28
2023-03-11T08:47:46.957Z,2.20
2023-03-11T08:50:25.426Z,2.40
2023-03-11T08:53:00.649Z,3.92
2023-03-11T08:55:44.898Z,1.88
2023-03-11T08:58:18.111Z,2.35
2023-03-11T09:00:55.909Z,2.42
2023-03-11T09:03:33.667Z,2.17
2023-03-11T09:06:16.500Z,2.25
2023-03-11T09:09:04.479Z,1.70
2023-03-11T09:11:47.620Z,2.67
2023-03-11T09:14:27.926Z,2.20
2023-03-11T09:17:01.734Z,2.40
2023-03-11T09:19:38.405Z,3.15
2023-03-11T09:22:14.369Z,2.42
2023-03-11T09:24:57.516Z,2.88
2023-03-11T09:27:33.312Z,3.83
2023-03-11T09:30:09.918Z,3.15
2023-03-11T09:32:47.724Z,7.15
2023-03-11T09:35:23.819Z,5.03
2023-03-11T09:38:01.156Z,2.75
2023-03-11T09:40:50.131Z,3.33
2023-03-11T09:43:45.952Z,4.65
2023-03-11T09:46:55.814Z,3.30
2023-03-11T09:49:40.658Z,5.13
2023-03-11T09:52:32.423Z,5.47
2023-03-11T09:55:27.149Z,3.85
2023-03-11T09:58:03.094Z,3.63
2023-03-11T10:00:59.285Z,2.97
2023-03-11T10:03:40.998Z,2.20
2023-03-11T10:06:32.966Z,3.80
2023-03-11T10:09:26.781Z,4.97
2023-03-11T10:12:23.349Z,3.85
2023-03-11T10:15:26.257Z,4.03
2023-03-11T10:18:40.879Z,4.15
2023-03-11T10:21:33.912Z,4.13
2023-03-11T10:24:46.333Z,4.82
2023-03-11T10:27:31.215Z,4.28
2023-03-11T10:30:13.472Z,4.07
2023-03-11T10:33:00.390Z,4.00
2023-03-11T10:35:45.991Z,3.47
2023-03-11T10:38:38.744Z,5.15
2023-03-11T10:41:21.296Z,5.47
2023-03-11T10:44:04.461Z,5.28
2023-03-11T10:46:41.995Z,4.57
2023-03-11T10:49:27.651Z,3.72
2023-03-11T10:52:29.904Z,3.65
2023-03-11T10:55:11.467Z,3.90
2023-03-11T10:57:51.671Z,4.82
2023-03-11T11:00:43.066Z,5.57
2023-03-11T11:03:48.172Z,4.53
2023-03-11T11:06:49.465Z,4.28
2023-03-11T11:09:34.934Z,6.03
2023-03-11T11:12:21.163Z,5.68
2023-03-11T11:15:15.489Z,3.20
2023-03-11T11:17:59.733Z,5.15
2023-03-11T11:20:41.420Z,4.97
2023-03-11T11:23:32.939Z,5.15
2023-03-11T11:26:23.979Z,4.43
2023-03-11T11:29:25.228Z,3.80
2023-03-11T11:32:25.228Z,5.35
2023-03-11T11:35:08.235Z,6.80
2023-03-11T11:37:53.486Z,6.50
2023-03-11T11:43:34.210Z,4.82
2023-03-11T11:46:17.165Z,4.30
2023-03-11T11:49:06.147Z,4.50
2023-03-11T11:51:46.547Z,3.83
2023-03-11T11:54:30.918Z,4.90
2023-03-11T11:57:06.905Z,4.57
2023-03-11T11:59:41.604Z,3.90
2023-03-11T12:03:01.938Z,3.88
2023-03-11T12:05:35.160Z,4.97
2023-03-11T12:08:18.573Z,6.07
2023-03-11T12:10:59.113Z,6.57
2023-03-11T12:14:13.773Z,4.57
2023-03-11T12:16:58.728Z,5.85
2023-03-11T12:19:49.577Z,4.35
2023-03-11T12:22:54.442Z,4.32
2023-03-11T12:25:49.755Z,3.85
2023-03-11T12:28:42.077Z,4.45
2023-03-11T12:31:22.544Z,5.90
2023-03-11T12:34:05.635Z,6.65
2023-03-11T12:36:39.344Z,5.03
2023-03-11T12:39:25.736Z,5.07
2023-03-11T12:42:29.420Z,6.40
2023-03-11T12:45:45.071Z,6.10
2023-03-11T12:48:43.584Z,7.43
2023-03-11T12:51:55.062Z,7.50
2023-03-11T12:54:38.894Z,6.90
2023-03-11T12:57:31.828Z,6.85
2023-03-11T13:00:36.502Z,6.50
2023-03-11T13:03:58.640Z,5.43
2023-03-11T13:07:18.476Z,7.38
2023-03-11T13:10:15.438Z,3.08
2023-03-11T13:12:52.238Z,4.78
2023-03-11T13:15:48.069Z,5.57
2023-03-11T13:18:32.844Z,4.20
2023-03-11T13:21:08.909Z,4.15
2023-03-11T13:23:48.937Z,3.60
2023-03-11T13:26:41.994Z,3.80
2023-03-11T13:29:49.410Z,2.78
2023-03-11T13:33:14.912Z,3.08
2023-03-11T13:36:13.307Z,3.80
2023-03-11T13:39:25.276Z,3.92
2023-03-11T13:42:07.411Z,4.65
2023-03-11T13:44:55.154Z,4.18
2023-03-11T13:47:40.542Z,3.60
2023-03-11T13:50:33.787Z,3.72
2023-03-11T13:53:11.855Z,4.80
2023-03-11T13:56:03.377Z,5.70
2023-03-11T13:58:49.344Z,7.35
2023-03-11T14:01:26.048Z,5.28
2023-03-11T14:04:00.942Z,4.05
2023-03-11T14:06:35.782Z,3.03
2023-03-11T14:09:36.708Z,2.92
2023-03-11T14:12:24.034Z,2.72
2023-03-11T14:15:20.859Z,2.78
2023-03-11T14:18:32.882Z,2.70
2023-03-11T14:21:21.522Z,3.42
2023-03-11T14:24:01.418Z,2.97
2023-03-11T14:26:38.111Z,2.53
2023-03-11T14:29:14.913Z,2.50
2023-03-11T14:31:51.914Z,2.40
2023-03-11T14:34:25.733Z,3.97
2023-03-11T14:36:58.959Z,6.25
2023-03-11T14:39:33.660Z,4.50
2023-03-11T14:42:10.521Z,15.48
2023-03-11T14:44:45.539Z,9.07
2023-03-11T14:47:24.413Z,5.25
2023-03-11T14:49:57.890Z,5.20
2023-03-11T14:52:37.787Z,5.43
2023-03-11T14:55:18.340Z,5.90
2023-03-11T14:57:55.730Z,6.10
2023-03-11T15:00:29.502Z,6.03
2023-03-11T15:03:25.944Z,6.15
2023-03-11T15:06:12.147Z,6.03
2023-03-11T15:09:12.688Z,6.45
2023-03-11T15:11:56.030Z,8.48
2023-03-11T15:14:28.517Z,9.18
2023-03-11T15:17:33.093Z,7.20
2023-03-11T15:20:35.101Z,7.78
2023-03-11T15:23:25.893Z,7.72
2023-03-11T15:26:06.638Z,8.18
2023-03-11T15:28:52.055Z,6.35
2023-03-11T15:31:50.494Z,5.38
2023-03-11T15:34:38.835Z,5.30
2023-03-11T15:37:27.176Z,6.53
2023-03-11T15:40:19.440Z,4.38
2023-03-11T15:43:36.935Z,5.63
2023-03-11T15:46:13.413Z,7.38
2023-03-11T15:48:58.495Z,6.28
2023-03-11T15:52:07.302Z,5.70
2023-03-11T15:54:54.486Z,5.40
2023-03-11T15:57:35.844Z,7.18
2023-03-11T16:00:29.112Z,7.55
2023-03-11T16:03:05.413Z,7.40
2023-03-11T16:05:45.310Z,9.30
2023-03-11T16:08:22.655Z,7.07
2023-03-11T16:11:06.959Z,8.20
2023-03-11T16:13:49.028Z,7.95
2023-03-11T16:16:39.168Z,10.98
2023-03-11T16:19:19.212Z,13.25
2023-03-11T16:22:01.964Z,10.77
2023-03-11T16:24:46.494Z,17.35
2023-03-11T16:27:38.202Z,21.05
2023-03-11T16:30:20.292Z,18.17
2023-03-11T16:33:05.124Z,23.75
2023-03-11T16:35:48.048Z,18.15
2023-03-11T16:38:24.750Z,11.90
2023-03-11T16:41:08.072Z,14.15
2023-03-11T16:43:53.679Z,18.60
2023-03-11T16:46:27.329Z,13.57
2023-03-11T16:49:08.807Z,12.73
2023-03-11T16:51:52.449Z,16.20
2023-03-11T16:54:35.619Z,23.08
2023-03-11T16:57:23.633Z,15.60
2023-03-11T17:00:08.973Z,18.33
2023-03-11T17:02:42.224Z,14.77
2023-03-11T17:05:25.886Z,13.55
2023-03-11T17:08:09.739Z,10.82
2023-03-11T17:10:55.323Z,10.65
2023-03-11T17:13:31.999Z,10.40
2023-03-11T17:16:15.077Z,9.90
2023-03-11T17:19:02.510Z,11.15
2023-03-11T17:21:39.409Z,11.23
2023-03-11T17:24:26.488Z,12.55
2023-03-11T17:27:02.199Z,14.40
2023-03-11T17:29:42.762Z,16.33
2023-03-11T17:32:26.801Z,16.17
2023-03-11T17:35:03.990Z,16.30
2023-03-11T17:37:40.932Z,18.65
2023-03-11T17:40:24.242Z,19.63
2023-03-11T17:43:00.296Z,19.50
2023-03-11T17:45:42.920Z,23.48
2023-03-11T17:48:35.739Z,24.83
2023-03-11T17:51:12.952Z,25.98
2023-03-11T17:53:50.858Z,26.13
2023-03-11T17:56:31.872Z,35.08
2023-03-11T17:59:07.900Z,27.30
2023-03-11T18:01:51.339Z,24.05
2023-03-11T18:04:36.449Z,20.95
2023-03-11T18:07:15.042Z,20.65
2023-03-11T18:09:54.519Z,20.23
2023-03-11T18:12:26.579Z,20.98
2023-03-11T18:14:57.527Z,21.08
2023-03-11T18:20:19.319Z,24.77
2023-03-11T18:22:50.088Z,22.13
2023-03-11T18:25:29.073Z,20.60
2023-03-11T18:28:08.994Z,19.48
2023-03-11T18:30:44.589Z,18.80
2023-03-11T18:33:19.260Z,18.88
2023-03-11T18:36:03.684Z,14.57
2023-03-11T18:38:41.638Z,12.90
2023-03-11T18:41:18.437Z,12.45
2023-03-11T18:43:50.762Z,13.25
2023-03-11T18:46:23.341Z,13.98
2023-03-11T18:48:58.183Z,14.18
2023-03-11T18:51:51.881Z,13.85
2023-03-11T18:54:28.559Z,15.77
2023-03-11T18:57:02.565Z,17.70
2023-03-11T18:59:50.188Z,18.83
2023-03-11T19:02:28.455Z,20.33
2023-03-11T19:05:12.385Z,20.38
2023-03-11T19:07:54.610Z,18.38
2023-03-11T19:10:48.354Z,16.58
2023-03-11T19:13:45.862Z,14.75
2023-03-11T19:16:25.274Z,15.40
2023-03-11T19:19:06.412Z,14.65
2023-03-11T19:21:52.452Z,15.02
2023-03-11T19:27:48.353Z,15.13
2023-03-11T19:30:33.126Z,15.25
2023-03-11T19:33:25.854Z,12.77
2023-03-11T19:36:24.106Z,14.02
2023-03-11T19:39:03.418Z,15.32
2023-03-11T19:42:10.496Z,17.45
2023-03-11T19:44:48.469Z,15.60
2023-03-11T19:47:23.228Z,15.77
2023-03-11T19:50:01.256Z,16.40
2023-03-11T19:52:42.758Z,16.75
2023-03-11T19:55:26.719Z,15.95
2023-03-11T19:58:16.844Z,13.63
2023-03-11T20:01:04.823Z,12.35
2023-03-11T20:03:53.314Z,14.35
2023-03-11T20:06:28.675Z,16.42
2023-03-11T20:09:07.395Z,16.92
2023-03-11T20:11:50.037Z,15.90
2023-03-11T20:14:31.521Z,14.43
2023-03-11T20:17:05.690Z,15.15
2023-03-11T20:19:44.805Z,14.48
2023-03-11T20:22:21.306Z,13.73
2023-03-11T20:25:07.451Z,12.27
2023-03-11T20:28:05.402Z,11.88
2023-03-11T20:30:52.266Z,10.13
2023-03-11T20:33:56.280Z,9.48
2023-03-11T20:36:33.107Z,9.88
2023-03-11T20:39:23.165Z,8.70
2023-03-11T20:42:10.107Z,8.02
2023-03-11T20:44:59.632Z,8.15
2023-03-11T20:47:58.042Z,7.45
2023-03-11T20:50:32.608Z,7.63
2023-03-11T20:56:17.980Z,9.13
2023-03-11T20:58:56.580Z,8.57
2023-03-11T21:01:33.775Z,8.13
2023-03-11T21:04:21.127Z,5.10
2023-03-11T21:07:00.001Z,5.70
2023-03-11T21:09:36.506Z,7.63
2023-03-11T21:12:25.168Z,8.65
2023-03-11T21:15:06.082Z,8.80
2023-03-11T21:17:45.043Z,8.48
2023-03-11T21:20:30.413Z,7.97
2023-03-11T21:23:13.723Z,8.52
2023-03-11T21:25:55.932Z,8.73
2023-03-11T21:28:38.114Z,9.13
2023-03-11T21:34:02.044Z,6.45
2023-03-11T21:36:40.276Z,5.55
2023-03-11T21:39:26.992Z,4.45
2023-03-11T21:42:20.557Z,4.72
2023-03-11T21:45:06.923Z,4.95
2023-03-11T21:47:53.086Z,5.88
2023-03-11T21:50:38.330Z,6.43
2023-03-11T21:53:20.700Z,5.85
2023-03-11T21:56:08.365Z,5.97
2023-03-11T21:58:50.845Z,5.68
2023-03-11T22:01:34.901Z,6.68
2023-03-11T22:04:16.089Z,6.05
2023-03-11T22:06:58.631Z,5.95
2023-03-11T22:09:41.020Z,5.85
2023-03-11T22:12:26.946Z,9.35
2023-03-11T22:15:13.775Z,6.45
2023-03-11T22:18:08.558Z,4.53
2023-03-11T22:20:45.337Z,6.30
2023-03-11T22:23:30.300Z,6.68
2023-03-11T22:26:15.645Z,7.07
2023-03-11T22:28:53.813Z,4.78
2023-03-11T22:31:26.302Z,5.05
2023-03-11T22:34:04.189Z,3.85
2023-03-11T22:36:42.527Z,3.90
2023-03-11T22:39:20.067Z,3.83
2023-03-11T22:42:03.978Z,4.20
2023-03-11T22:44:41.333Z,3.50
2023-03-11T22:47:21.766Z,3.38
2023-03-11T22:50:00.710Z,3.65
2023-03-11T22:52:41.921Z,4.03
2023-03-11T22:55:23.624Z,4.18
2023-03-11T22:58:05.497Z,3.97
2023-03-11T23:00:50.181Z,4.18
2023-03-11T23:03:35.478Z,4.07
2023-03-11T23:06:14.833Z,4.55
2023-03-11T23:08:50.589Z,4.45
2023-03-11T23:11:27.991Z,4.25
2023-03-11T23:14:20.564Z,5.88
2023-03-11T23:17:10.632Z,4.50
2023-03-11T23:19:55.559Z,4.85
2023-03-11T23:22:44.302Z,4.70
2023-03-11T23:25:25.369Z,4.95
2023-03-11T23:30:52.736Z,4.38
2023-03-11T23:33:35.042Z,4.65
2023-03-11T23:36:20.190Z,5.57
2023-03-11T23:38:56.948Z,5.45
2023-03-11T23:41:52.009Z,5.05
2023-03-11T23:44:30.384Z,5.18
2023-03-11T23:47:10.132Z,4.95
2023-03-11T23:49:53.544Z,4.22
2023-03-11T23:52:31.759Z,4.97
2023-03-11T23:55:14.318Z,5.85
2023-03-11T23:57:49.912Z,4.97
